sensor_id;sensor_type;location;lat;lon;timestamp;P1;durP1;ratioP1;P2;durP2;ratioP2
8094;SDS011;4090;49.270;8.696;2023-12-22T00:02:27;0.50;;;0.45;;
8094;SDS011;4090;49.270;8.696;2023-12-22T00:05:09;1.40;;;0.30;;
8094;SDS011;4090;49.270;8.696;2023-12-22T00:07:51;3.58;;;0.40;;
8094;SDS011;4090;49.270;8.696;2023-12-22T00:10:34;2.35;;;0.47;;
8094;SDS011;4090;49.270;8.696;2023-12-22T00:13:16;0.47;;;0.32;;
8094;SDS011;4090;49.270;8.696;2023-12-22T00:15:58;0.45;;;0.40;;
8094;SDS011;4090;49.270;8.696;2023-12-22T00:18:40;1.90;;;0.60;;
8094;SDS011;4090;49.270;8.696;2023-12-22T00:21:22;0.52;;;0.40;;
8094;SDS011;4090;49.270;8.696;2023-12-22T00:24:04;0.30;;;0.30;;
8094;SDS011;4090;49.270;8.696;2023-12-22T00:26:47;1.85;;;0.35;;
8094;SDS011;4090;49.270;8.696;2023-12-22T00:29:29;0.55;;;0.40;;
8094;SDS011;4090;49.270;8.696;2023-12-22T00:32:11;0.20;;;0.20;;
8094;SDS011;4090;49.270;8.696;2023-12-22T00:34:53;1.17;;;0.47;;
8094;SDS011;4090;49.270;8.696;2023-12-22T00:37:36;1.13;;;0.40;;
8094;SDS011;4090;49.270;8.696;2023-12-22T00:40:18;0.35;;;0.30;;
8094;SDS011;4090;49.270;8.696;2023-12-22T00:43:02;0.65;;;0.40;;
8094;SDS011;4090;49.270;8.696;2023-12-22T00:45:44;1.45;;;0.57;;
8094;SDS011;4090;49.270;8.696;2023-12-22T00:48:25;1.58;;;0.40;;
8094;SDS011;4090;49.270;8.696;2023-12-22T00:51:07;2.50;;;0.40;;
8094;SDS011;4090;49.270;8.696;2023-12-22T00:53:50;0.52;;;0.28;;
8094;SDS011;4090;49.270;8.696;2023-12-22T00:56:31;1.02;;;0.40;;
8094;SDS011;4090;49.270;8.696;2023-12-22T00:59:15;1.08;;;0.28;;
8094;SDS011;4090;49.270;8.696;2023-12-22T01:01:56;0.70;;;0.50;;
8094;SDS011;4090;49.270;8.696;2023-12-22T01:04:38;2.92;;;0.50;;
8094;SDS011;4090;49.270;8.696;2023-12-22T01:07:20;0.40;;;0.38;;
8094;SDS011;4090;49.270;8.696;2023-12-22T01:10:02;1.35;;;0.40;;
8094;SDS011;4090;49.270;8.696;2023-12-22T01:12:45;0.20;;;0.20;;
8094;SDS011;4090;49.270;8.696;2023-12-22T01:15:28;1.20;;;0.50;;
8094;SDS011;4090;49.270;8.696;2023-12-22T01:18:10;2.55;;;0.50;;
8094;SDS011;4090;49.270;8.696;2023-12-22T01:20:52;0.40;;;0.28;;
8094;SDS011;4090;49.270;8.696;2023-12-22T01:23:34;0.40;;;0.30;;
8094;SDS011;4090;49.270;8.696;2023-12-22T01:26:15;9.93;;;0.63;;
8094;SDS011;4090;49.270;8.696;2023-12-22T01:28:57;0.55;;;0.47;;
8094;SDS011;4090;49.270;8.696;2023-12-22T01:31:40;2.08;;;0.65;;
8094;SDS011;4090;49.270;8.696;2023-12-22T01:34:22;2.17;;;0.50;;
8094;SDS011;4090;49.270;8.696;2023-12-22T01:37:05;2.65;;;0.38;;
8094;SDS011;4090;49.270;8.696;2023-12-22T01:39:47;1.48;;;0.43;;
8094;SDS011;4090;49.270;8.696;2023-12-22T01:42:29;0.55;;;0.50;;
8094;SDS011;4090;49.270;8.696;2023-12-22T01:45:11;0.43;;;0.40;;
8094;SDS011;4090;49.270;8.696;2023-12-22T01:47:54;0.60;;;0.50;;
8094;SDS011;4090;49.270;8.696;2023-12-22T01:50:36;1.25;;;0.47;;
8094;SDS011;4090;49.270;8.696;2023-12-22T01:53:19;0.77;;;0.50;;
8094;SDS011;4090;49.270;8.696;2023-12-22T01:56:02;0.68;;;0.40;;
8094;SDS011;4090;49.270;8.696;2023-12-22T01:58:44;1.42;;;0.50;;
8094;SDS011;4090;49.270;8.696;2023-12-22T02:01:33;1.63;;;0.50;;
8094;SDS011;4090;49.270;8.696;2023-12-22T02:04:17;0.45;;;0.40;;
8094;SDS011;4090;49.270;8.696;2023-12-22T02:07:01;1.70;;;0.47;;
8094;SDS011;4090;49.270;8.696;2023-12-22T02:09:43;1.05;;;0.63;;
8094;SDS011;4090;49.270;8.696;2023-12-22T02:12:25;2.55;;;0.82;;
8094;SDS011;4090;49.270;8.696;2023-12-22T02:15:07;1.60;;;0.70;;
8094;SDS011;4090;49.270;8.696;2023-12-22T02:17:52;1.27;;;0.90;;
8094;SDS011;4090;49.270;8.696;2023-12-22T02:20:37;2.83;;;1.00;;
8094;SDS011;4090;49.270;8.696;2023-12-22T02:23:21;4.22;;;1.38;;
8094;SDS011;4090;49.270;8.696;2023-12-22T02:26:06;2.05;;;1.15;;
8094;SDS011;4090;49.270;8.696;2023-12-22T02:28:55;7.00;;;1.30;;
8094;SDS011;4090;49.270;8.696;2023-12-22T02:31:40;2.58;;;1.00;;
8094;SDS011;4090;49.270;8.696;2023-12-22T02:34:29;7.55;;;1.20;;
8094;SDS011;4090;49.270;8.696;2023-12-22T02:37:12;5.57;;;1.23;;
8094;SDS011;4090;49.270;8.696;2023-12-22T02:39:56;5.38;;;1.33;;
8094;SDS011;4090;49.270;8.696;2023-12-22T02:42:39;4.20;;;1.10;;
8094;SDS011;4090;49.270;8.696;2023-12-22T02:45:21;3.10;;;1.20;;
8094;SDS011;4090;49.270;8.696;2023-12-22T02:48:03;5.90;;;1.20;;
8094;SDS011;4090;49.270;8.696;2023-12-22T02:50:46;4.32;;;1.48;;
8094;SDS011;4090;49.270;8.696;2023-12-22T02:53:27;3.70;;;1.00;;
8094;SDS011;4090;49.270;8.696;2023-12-22T02:56:11;7.18;;;1.60;;
8094;SDS011;4090;49.270;8.696;2023-12-22T02:58:52;3.20;;;1.13;;
8094;SDS011;4090;49.270;8.696;2023-12-22T03:01:34;7.55;;;1.55;;
8094;SDS011;4090;49.270;8.696;2023-12-22T03:04:16;6.00;;;1.52;;
8094;SDS011;4090;49.270;8.696;2023-12-22T03:06:58;7.43;;;1.20;;
8094;SDS011;4090;49.270;8.696;2023-12-22T03:09:40;5.50;;;1.40;;
8094;SDS011;4090;49.270;8.696;2023-12-22T03:12:24;7.00;;;1.70;;
8094;SDS011;4090;49.270;8.696;2023-12-22T03:15:06;4.97;;;1.08;;
8094;SDS011;4090;49.270;8.696;2023-12-22T03:17:49;7.95;;;1.45;;
8094;SDS011;4090;49.270;8.696;2023-12-22T03:20:31;5.47;;;1.45;;
8094;SDS011;4090;49.270;8.696;2023-12-22T03:23:13;3.38;;;1.35;;
8094;SDS011;4090;49.270;8.696;2023-12-22T03:25:55;5.40;;;1.20;;
8094;SDS011;4090;49.270;8.696;2023-12-22T03:28:38;5.35;;;1.08;;
8094;SDS011;4090;49.270;8.696;2023-12-22T03:31:20;6.55;;;1.42;;
8094;SDS011;4090;49.270;8.696;2023-12-22T03:34:01;4.45;;;1.20;;
8094;SDS011;4090;49.270;8.696;2023-12-22T03:36:43;6.20;;;1.42;;
8094;SDS011;4090;49.270;8.696;2023-12-22T03:39:28;6.47;;;1.40;;
8094;SDS011;4090;49.270;8.696;2023-12-22T03:42:10;4.45;;;1.50;;
8094;SDS011;4090;49.270;8.696;2023-12-22T03:44:53;5.88;;;1.20;;
8094;SDS011;4090;49.270;8.696;2023-12-22T03:47:35;4.85;;;0.93;;
8094;SDS011;4090;49.270;8.696;2023-12-22T03:50:17;9.18;;;1.38;;
8094;SDS011;4090;49.270;8.696;2023-12-22T03:52:59;5.65;;;1.20;;
8094;SDS011;4090;49.270;8.696;2023-12-22T03:55:41;4.70;;;1.50;;
8094;SDS011;4090;49.270;8.696;2023-12-22T03:58:23;3.83;;;1.42;;
8094;SDS011;4090;49.270;8.696;2023-12-22T04:01:07;8.40;;;1.55;;
8094;SDS011;4090;49.270;8.696;2023-12-22T04:03:49;3.60;;;1.13;;
8094;SDS011;4090;49.270;8.696;2023-12-22T04:06:31;2.50;;;0.90;;
8094;SDS011;4090;49.270;8.696;2023-12-22T04:09:13;2.95;;;1.15;;
8094;SDS011;4090;49.270;8.696;2023-12-22T04:11:55;4.90;;;0.95;;
8094;SDS011;4090;49.270;8.696;2023-12-22T04:14:37;2.15;;;1.00;;
8094;SDS011;4090;49.270;8.696;2023-12-22T04:17:20;2.33;;;1.17;;
8094;SDS011;4090;49.270;8.696;2023-12-22T04:20:02;2.75;;;0.88;;
8094;SDS011;4090;49.270;8.696;2023-12-22T04:22:45;2.67;;;0.80;;
8094;SDS011;4090;49.270;8.696;2023-12-22T04:25:26;5.13;;;1.17;;
8094;SDS011;4090;49.270;8.696;2023-12-22T04:28:08;2.83;;;1.00;;
8094;SDS011;4090;49.270;8.696;2023-12-22T04:30:50;1.73;;;1.00;;
8094;SDS011;4090;49.270;8.696;2023-12-22T04:33:34;2.10;;;1.05;;
8094;SDS011;4090;49.270;8.696;2023-12-22T04:36:15;6.30;;;0.90;;
8094;SDS011;4090;49.270;8.696;2023-12-22T04:38:58;1.58;;;0.93;;
8094;SDS011;4090;49.270;8.696;2023-12-22T04:41:40;3.95;;;1.00;;
8094;SDS011;4090;49.270;8.696;2023-12-22T04:44:21;4.18;;;1.40;;
8094;SDS011;4090;49.270;8.696;2023-12-22T04:47:03;2.65;;;1.08;;
8094;SDS011;4090;49.270;8.696;2023-12-22T04:49:46;3.72;;;1.10;;
8094;SDS011;4090;49.270;8.696;2023-12-22T04:52:28;8.35;;;1.42;;
8094;SDS011;4090;49.270;8.696;2023-12-22T04:55:10;2.88;;;1.00;;
8094;SDS011;4090;49.270;8.696;2023-12-22T04:57:52;4.93;;;1.27;;
8094;SDS011;4090;49.270;8.696;2023-12-22T05:00:34;3.22;;;1.08;;
8094;SDS011;4090;49.270;8.696;2023-12-22T05:03:16;3.88;;;1.00;;
8094;SDS011;4090;49.270;8.696;2023-12-22T05:05:59;3.72;;;1.10;;
8094;SDS011;4090;49.270;8.696;2023-12-22T05:08:41;9.57;;;1.50;;
8094;SDS011;4090;49.270;8.696;2023-12-22T05:11:23;4.30;;;1.10;;
8094;SDS011;4090;49.270;8.696;2023-12-22T05:14:05;2.70;;;1.10;;
8094;SDS011;4090;49.270;8.696;2023-12-22T05:16:46;2.35;;;1.08;;
8094;SDS011;4090;49.270;8.696;2023-12-22T05:19:28;5.18;;;1.25;;
8094;SDS011;4090;49.270;8.696;2023-12-22T05:22:12;3.45;;;1.15;;
8094;SDS011;4090;49.270;8.696;2023-12-22T05:24:53;6.10;;;1.13;;
8094;SDS011;4090;49.270;8.696;2023-12-22T05:27:35;2.25;;;1.20;;
8094;SDS011;4090;49.270;8.696;2023-12-22T05:30:17;6.20;;;1.30;;
8094;SDS011;4090;49.270;8.696;2023-12-22T05:32:59;7.40;;;1.33;;
8094;SDS011;4090;49.270;8.696;2023-12-22T05:35:41;3.88;;;1.27;;
8094;SDS011;4090;49.270;8.696;2023-12-22T05:38:24;5.28;;;1.35;;
8094;SDS011;4090;49.270;8.696;2023-12-22T05:41:06;6.03;;;1.40;;
8094;SDS011;4090;49.270;8.696;2023-12-22T05:43:48;4.03;;;1.08;;
8094;SDS011;4090;49.270;8.696;2023-12-22T05:46:30;5.55;;;1.63;;
8094;SDS011;4090;49.270;8.696;2023-12-22T05:49:12;8.35;;;1.60;;
8094;SDS011;4090;49.270;8.696;2023-12-22T05:51:53;6.00;;;1.33;;
8094;SDS011;4090;49.270;8.696;2023-12-22T05:54:37;4.82;;;1.48;;
8094;SDS011;4090;49.270;8.696;2023-12-22T05:57:19;5.00;;;1.40;;
8094;SDS011;4090;49.270;8.696;2023-12-22T06:00:01;6.22;;;1.45;;
8094;SDS011;4090;49.270;8.696;2023-12-22T06:02:45;4.30;;;1.35;;
8094;SDS011;4090;49.270;8.696;2023-12-22T06:05:27;4.60;;;1.55;;
8094;SDS011;4090;49.270;8.696;2023-12-22T06:08:10;6.45;;;1.70;;
8094;SDS011;4090;49.270;8.696;2023-12-22T06:10:53;7.05;;;1.33;;
8094;SDS011;4090;49.270;8.696;2023-12-22T06:13:35;7.05;;;1.50;;
8094;SDS011;4090;49.270;8.696;2023-12-22T06:16:17;2.65;;;1.38;;
8094;SDS011;4090;49.270;8.696;2023-12-22T06:18:59;5.60;;;1.48;;
8094;SDS011;4090;49.270;8.696;2023-12-22T06:21:41;8.05;;;1.77;;
8094;SDS011;4090;49.270;8.696;2023-12-22T06:24:23;6.25;;;1.33;;
8094;SDS011;4090;49.270;8.696;2023-12-22T06:27:06;6.45;;;1.88;;
8094;SDS011;4090;49.270;8.696;2023-12-22T06:29:48;8.98;;;2.03;;
8094;SDS011;4090;49.270;8.696;2023-12-22T06:32:30;8.07;;;1.80;;
8094;SDS011;4090;49.270;8.696;2023-12-22T06:35:13;6.82;;;1.58;;
8094;SDS011;4090;49.270;8.696;2023-12-22T06:37:55;7.38;;;2.10;;
8094;SDS011;4090;49.270;8.696;2023-12-22T06:40:39;6.57;;;1.60;;
8094;SDS011;4090;49.270;8.696;2023-12-22T06:43:22;11.10;;;1.63;;
8094;SDS011;4090;49.270;8.696;2023-12-22T06:46:13;3.65;;;1.40;;
8094;SDS011;4090;49.270;8.696;2023-12-22T06:48:56;7.32;;;1.70;;
8094;SDS011;4090;49.270;8.696;2023-12-22T06:51:38;3.30;;;1.50;;
8094;SDS011;4090;49.270;8.696;2023-12-22T06:54:20;9.32;;;1.70;;
8094;SDS011;4090;49.270;8.696;2023-12-22T06:57:02;1.92;;;1.02;;
8094;SDS011;4090;49.270;8.696;2023-12-22T06:59:45;7.50;;;1.40;;
8094;SDS011;4090;49.270;8.696;2023-12-22T07:02:29;6.70;;;1.45;;
8094;SDS011;4090;49.270;8.696;2023-12-22T07:05:29;8.05;;;1.85;;
8094;SDS011;4090;49.270;8.696;2023-12-22T07:08:16;7.97;;;1.33;;
8094;SDS011;4090;49.270;8.696;2023-12-22T07:10:58;5.75;;;1.13;;
8094;SDS011;4090;49.270;8.696;2023-12-22T07:13:40;2.88;;;1.35;;
8094;SDS011;4090;49.270;8.696;2023-12-22T07:16:23;3.80;;;1.10;;
8094;SDS011;4090;49.270;8.696;2023-12-22T07:19:05;1.83;;;0.70;;
8094;SDS011;4090;49.270;8.696;2023-12-22T07:21:47;3.90;;;0.98;;
8094;SDS011;4090;49.270;8.696;2023-12-22T07:24:29;1.70;;;0.82;;
8094;SDS011;4090;49.270;8.696;2023-12-22T07:27:11;7.05;;;1.10;;
8094;SDS011;4090;49.270;8.696;2023-12-22T07:29:54;3.92;;;1.02;;
8094;SDS011;4090;49.270;8.696;2023-12-22T07:32:38;4.18;;;0.90;;
8094;SDS011;4090;49.270;8.696;2023-12-22T07:35:19;5.85;;;1.52;;
8094;SDS011;4090;49.270;8.696;2023-12-22T07:38:01;1.50;;;0.93;;
8094;SDS011;4090;49.270;8.696;2023-12-22T07:40:44;1.77;;;0.90;;
8094;SDS011;4090;49.270;8.696;2023-12-22T07:43:25;5.20;;;1.23;;
8094;SDS011;4090;49.270;8.696;2023-12-22T07:46:16;5.20;;;1.52;;
8094;SDS011;4090;49.270;8.696;2023-12-22T07:48:59;3.22;;;1.08;;
8094;SDS011;4090;49.270;8.696;2023-12-22T07:51:41;1.98;;;0.90;;
8094;SDS011;4090;49.270;8.696;2023-12-22T07:54:24;4.22;;;1.00;;
8094;SDS011;4090;49.270;8.696;2023-12-22T07:57:06;6.88;;;1.00;;
8094;SDS011;4090;49.270;8.696;2023-12-22T07:59:48;3.90;;;1.05;;
8094;SDS011;4090;49.270;8.696;2023-12-22T08:02:29;2.35;;;0.80;;
8094;SDS011;4090;49.270;8.696;2023-12-22T08:05:13;4.38;;;1.00;;
8094;SDS011;4090;49.270;8.696;2023-12-22T08:07:54;5.82;;;1.05;;
8094;SDS011;4090;49.270;8.696;2023-12-22T08:10:36;2.63;;;1.25;;
8094;SDS011;4090;49.270;8.696;2023-12-22T08:13:18;7.90;;;1.02;;
8094;SDS011;4090;49.270;8.696;2023-12-22T08:16:00;2.30;;;0.90;;
8094;SDS011;4090;49.270;8.696;2023-12-22T08:18:43;19.42;;;2.38;;
8094;SDS011;4090;49.270;8.696;2023-12-22T08:21:26;7.90;;;1.63;;
8094;SDS011;4090;49.270;8.696;2023-12-22T08:24:08;3.88;;;1.40;;
8094;SDS011;4090;49.270;8.696;2023-12-22T08:26:51;2.17;;;1.20;;
8094;SDS011;4090;49.270;8.696;2023-12-22T08:29:33;6.38;;;1.95;;
8094;SDS011;4090;49.270;8.696;2023-12-22T08:32:15;4.90;;;2.00;;
8094;SDS011;4090;49.270;8.696;2023-12-22T08:34:57;6.63;;;1.95;;
8094;SDS011;4090;49.270;8.696;2023-12-22T08:37:40;6.38;;;1.95;;
8094;SDS011;4090;49.270;8.696;2023-12-22T08:40:22;8.27;;;2.67;;
8094;SDS011;4090;49.270;8.696;2023-12-22T08:43:06;5.85;;;2.50;;
8094;SDS011;4090;49.270;8.696;2023-12-22T08:45:48;6.93;;;2.45;;
8094;SDS011;4090;49.270;8.696;2023-12-22T08:48:30;4.53;;;2.13;;
8094;SDS011;4090;49.270;8.696;2023-12-22T08:51:12;8.82;;;2.17;;
8094;SDS011;4090;49.270;8.696;2023-12-22T08:53:55;8.80;;;2.67;;
8094;SDS011;4090;49.270;8.696;2023-12-22T08:56:37;11.98;;;2.58;;
8094;SDS011;4090;49.270;8.696;2023-12-22T08:59:19;8.32;;;2.90;;
8094;SDS011;4090;49.270;8.696;2023-12-22T09:02:01;6.05;;;2.50;;
8094;SDS011;4090;49.270;8.696;2023-12-22T09:04:43;9.02;;;2.75;;
8094;SDS011;4090;49.270;8.696;2023-12-22T09:07:24;7.63;;;2.78;;
8094;SDS011;4090;49.270;8.696;2023-12-22T09:10:08;9.60;;;3.90;;
8094;SDS011;4090;49.270;8.696;2023-12-22T09:12:50;6.35;;;2.55;;
8094;SDS011;4090;49.270;8.696;2023-12-22T09:15:33;3.78;;;2.38;;
8094;SDS011;4090;49.270;8.696;2023-12-22T09:18:16;5.88;;;2.40;;
8094;SDS011;4090;49.270;8.696;2023-12-22T09:20:58;7.25;;;2.38;;
8094;SDS011;4090;49.270;8.696;2023-12-22T09:23:40;8.43;;;2.00;;
8094;SDS011;4090;49.270;8.696;2023-12-22T09:26:26;10.63;;;2.55;;
8094;SDS011;4090;49.270;8.696;2023-12-22T09:29:08;11.23;;;2.58;;
8094;SDS011;4090;49.270;8.696;2023-12-22T09:31:50;16.27;;;2.50;;
8094;SDS011;4090;49.270;8.696;2023-12-22T09:34:32;9.82;;;2.15;;
8094;SDS011;4090;49.270;8.696;2023-12-22T09:37:13;17.15;;;2.70;;
8094;SDS011;4090;49.270;8.696;2023-12-22T09:39:55;11.57;;;2.40;;
8094;SDS011;4090;49.270;8.696;2023-12-22T09:42:40;23.65;;;2.83;;
8094;SDS011;4090;49.270;8.696;2023-12-22T09:45:24;16.15;;;2.78;;
8094;SDS011;4090;49.270;8.696;2023-12-22T09:48:06;8.85;;;2.20;;
8094;SDS011;4090;49.270;8.696;2023-12-22T09:50:51;19.30;;;3.72;;
8094;SDS011;4090;49.270;8.696;2023-12-22T09:53:33;9.50;;;2.70;;
8094;SDS011;4090;49.270;8.696;2023-12-22T09:56:16;11.80;;;2.78;;
8094;SDS011;4090;49.270;8.696;2023-12-22T09:59:01;13.18;;;2.83;;
8094;SDS011;4090;49.270;8.696;2023-12-22T10:01:43;15.48;;;2.42;;
8094;SDS011;4090;49.270;8.696;2023-12-22T10:04:26;11.80;;;2.53;;
8094;SDS011;4090;49.270;8.696;2023-12-22T10:07:08;14.75;;;2.70;;
8094;SDS011;4090;49.270;8.696;2023-12-22T10:09:54;11.15;;;3.00;;
8094;SDS011;4090;49.270;8.696;2023-12-22T10:12:36;7.82;;;2.15;;
8094;SDS011;4090;49.270;8.696;2023-12-22T10:15:21;17.33;;;3.03;;
8094;SDS011;4090;49.270;8.696;2023-12-22T10:18:04;12.00;;;2.70;;
8094;SDS011;4090;49.270;8.696;2023-12-22T10:20:47;17.38;;;2.22;;
8094;SDS011;4090;49.270;8.696;2023-12-22T10:23:29;16.52;;;2.92;;
8094;SDS011;4090;49.270;8.696;2023-12-22T10:26:11;12.05;;;2.83;;
8094;SDS011;4090;49.270;8.696;2023-12-22T10:28:53;17.23;;;3.25;;
8094;SDS011;4090;49.270;8.696;2023-12-22T10:31:40;9.82;;;2.70;;
8094;SDS011;4090;49.270;8.696;2023-12-22T10:34:22;12.45;;;2.45;;
8094;SDS011;4090;49.270;8.696;2023-12-22T10:37:04;11.95;;;2.45;;
8094;SDS011;4090;49.270;8.696;2023-12-22T10:39:46;9.48;;;2.50;;
8094;SDS011;4090;49.270;8.696;2023-12-22T10:42:29;12.23;;;2.90;;
8094;SDS011;4090;49.270;8.696;2023-12-22T10:45:11;17.92;;;3.30;;
8094;SDS011;4090;49.270;8.696;2023-12-22T10:47:54;10.82;;;2.28;;
8094;SDS011;4090;49.270;8.696;2023-12-22T10:50:36;9.93;;;2.20;;
8094;SDS011;4090;49.270;8.696;2023-12-22T10:53:20;22.38;;;2.80;;
8094;SDS011;4090;49.270;8.696;2023-12-22T10:56:04;20.05;;;3.05;;
8094;SDS011;4090;49.270;8.696;2023-12-22T10:58:47;14.05;;;3.13;;
8094;SDS011;4090;49.270;8.696;2023-12-22T11:01:28;12.90;;;2.42;;
8094;SDS011;4090;49.270;8.696;2023-12-22T11:04:16;8.95;;;2.40;;
8094;SDS011;4090;49.270;8.696;2023-12-22T11:07:00;6.38;;;2.45;;
8094;SDS011;4090;49.270;8.696;2023-12-22T11:09:45;8.90;;;2.10;;
8094;SDS011;4090;49.270;8.696;2023-12-22T11:12:32;17.55;;;2.33;;
8094;SDS011;4090;49.270;8.696;2023-12-22T11:15:15;13.48;;;2.83;;
8094;SDS011;4090;49.270;8.696;2023-12-22T11:18:00;9.25;;;2.33;;
8094;SDS011;4090;49.270;8.696;2023-12-22T11:20:44;10.38;;;1.92;;
8094;SDS011;4090;49.270;8.696;2023-12-22T11:23:26;11.80;;;2.58;;
8094;SDS011;4090;49.270;8.696;2023-12-22T11:26:11;8.55;;;2.50;;
8094;SDS011;4090;49.270;8.696;2023-12-22T11:28:56;13.40;;;2.80;;
8094;SDS011;4090;49.270;8.696;2023-12-22T11:31:39;9.00;;;2.15;;
8094;SDS011;4090;49.270;8.696;2023-12-22T11:34:22;10.52;;;2.45;;
8094;SDS011;4090;49.270;8.696;2023-12-22T11:37:08;7.25;;;1.80;;
8094;SDS011;4090;49.270;8.696;2023-12-22T11:39:52;6.15;;;2.75;;
8094;SDS011;4090;49.270;8.696;2023-12-22T11:42:35;7.80;;;1.90;;
8094;SDS011;4090;49.270;8.696;2023-12-22T11:45:23;7.60;;;1.98;;
8094;SDS011;4090;49.270;8.696;2023-12-22T11:48:05;9.52;;;2.08;;
8094;SDS011;4090;49.270;8.696;2023-12-22T11:50:49;7.22;;;1.85;;
8094;SDS011;4090;49.270;8.696;2023-12-22T11:53:32;7.68;;;1.80;;
8094;SDS011;4090;49.270;8.696;2023-12-22T11:56:14;11.35;;;1.90;;
8094;SDS011;4090;49.270;8.696;2023-12-22T11:58:58;3.83;;;1.45;;
8094;SDS011;4090;49.270;8.696;2023-12-22T12:01:41;11.15;;;2.05;;
8094;SDS011;4090;49.270;8.696;2023-12-22T12:04:23;7.38;;;1.80;;
8094;SDS011;4090;49.270;8.696;2023-12-22T12:10:50;4.75;;;1.48;;
8094;SDS011;4090;49.270;8.696;2023-12-22T12:13:34;9.65;;;2.58;;
8094;SDS011;4090;49.270;8.696;2023-12-22T12:16:19;6.50;;;1.40;;
8094;SDS011;4090;49.270;8.696;2023-12-22T12:19:02;5.72;;;1.48;;
8094;SDS011;4090;49.270;8.696;2023-12-22T12:21:49;4.78;;;1.40;;
8094;SDS011;4090;49.270;8.696;2023-12-22T12:24:31;9.57;;;1.50;;
8094;SDS011;4090;49.270;8.696;2023-12-22T12:27:18;3.33;;;1.15;;
8094;SDS011;4090;49.270;8.696;2023-12-22T12:30:03;3.55;;;1.23;;
8094;SDS011;4090;49.270;8.696;2023-12-22T12:32:49;4.63;;;1.45;;
8094;SDS011;4090;49.270;8.696;2023-12-22T12:35:31;2.90;;;1.02;;
8094;SDS011;4090;49.270;8.696;2023-12-22T12:38:14;6.22;;;1.50;;
8094;SDS011;4090;49.270;8.696;2023-12-22T12:40:58;5.97;;;1.20;;
8094;SDS011;4090;49.270;8.696;2023-12-22T12:43:42;4.38;;;1.10;;
8094;SDS011;4090;49.270;8.696;2023-12-22T12:46:31;2.13;;;0.90;;
8094;SDS011;4090;49.270;8.696;2023-12-22T12:49:14;2.20;;;1.00;;
8094;SDS011;4090;49.270;8.696;2023-12-22T12:51:56;1.75;;;0.90;;
8094;SDS011;4090;49.270;8.696;2023-12-22T12:54:38;2.97;;;0.77;;
8094;SDS011;4090;49.270;8.696;2023-12-22T12:57:19;1.98;;;0.88;;
8094;SDS011;4090;49.270;8.696;2023-12-22T13:00:04;1.25;;;0.65;;
8094;SDS011;4090;49.270;8.696;2023-12-22T13:02:47;3.08;;;0.95;;
8094;SDS011;4090;49.270;8.696;2023-12-22T13:05:29;2.78;;;0.70;;
8094;SDS011;4090;49.270;8.696;2023-12-22T13:08:11;2.28;;;0.88;;
8094;SDS011;4090;49.270;8.696;2023-12-22T13:10:59;4.10;;;1.17;;
8094;SDS011;4090;49.270;8.696;2023-12-22T13:13:42;0.70;;;0.70;;
8094;SDS011;4090;49.270;8.696;2023-12-22T13:16:26;1.30;;;0.85;;
8094;SDS011;4090;49.270;8.696;2023-12-22T13:19:10;2.13;;;0.60;;
8094;SDS011;4090;49.270;8.696;2023-12-22T13:21:52;3.25;;;0.85;;
8094;SDS011;4090;49.270;8.696;2023-12-22T13:24:35;0.98;;;0.98;;
8094;SDS011;4090;49.270;8.696;2023-12-22T13:27:17;2.95;;;1.00;;
8094;SDS011;4090;49.270;8.696;2023-12-22T13:29:58;1.48;;;0.80;;
8094;SDS011;4090;49.270;8.696;2023-12-22T13:32:42;1.58;;;0.82;;
8094;SDS011;4090;49.270;8.696;2023-12-22T13:35:23;1.77;;;1.48;;
8094;SDS011;4090;49.270;8.696;2023-12-22T13:38:07;0.98;;;0.90;;
8094;SDS011;4090;49.270;8.696;2023-12-22T13:40:49;1.33;;;1.20;;
8094;SDS011;4090;49.270;8.696;2023-12-22T13:43:31;2.78;;;1.27;;
8094;SDS011;4090;49.270;8.696;2023-12-22T13:46:13;2.45;;;1.20;;
8094;SDS011;4090;49.270;8.696;2023-12-22T13:48:57;1.58;;;1.30;;
8094;SDS011;4090;49.270;8.696;2023-12-22T13:51:40;2.00;;;1.60;;
8094;SDS011;4090;49.270;8.696;2023-12-22T13:54:31;1.63;;;1.30;;
8094;SDS011;4090;49.270;8.696;2023-12-22T13:57:19;2.40;;;1.60;;
8094;SDS011;4090;49.270;8.696;2023-12-22T14:00:25;1.30;;;1.20;;
8094;SDS011;4090;49.270;8.696;2023-12-22T14:03:08;2.47;;;1.13;;
8094;SDS011;4090;49.270;8.696;2023-12-22T14:05:53;1.67;;;1.10;;
8094;SDS011;4090;49.270;8.696;2023-12-22T14:08:35;0.95;;;0.95;;
8094;SDS011;4090;49.270;8.696;2023-12-22T14:11:17;1.15;;;1.00;;
8094;SDS011;4090;49.270;8.696;2023-12-22T14:13:59;0.68;;;0.68;;
8094;SDS011;4090;49.270;8.696;2023-12-22T14:16:41;2.05;;;0.90;;
8094;SDS011;4090;49.270;8.696;2023-12-22T14:19:23;0.85;;;0.68;;
8094;SDS011;4090;49.270;8.696;2023-12-22T14:22:06;0.57;;;0.57;;
8094;SDS011;4090;49.270;8.696;2023-12-22T14:24:48;0.60;;;0.57;;
8094;SDS011;4090;49.270;8.696;2023-12-22T14:27:30;0.70;;;0.70;;
8094;SDS011;4090;49.270;8.696;2023-12-22T14:30:12;2.92;;;1.00;;
8094;SDS011;4090;49.270;8.696;2023-12-22T14:32:55;0.95;;;0.70;;
8094;SDS011;4090;49.270;8.696;2023-12-22T14:35:39;0.60;;;0.60;;
8094;SDS011;4090;49.270;8.696;2023-12-22T14:38:23;0.50;;;0.50;;
8094;SDS011;4090;49.270;8.696;2023-12-22T14:41:04;0.95;;;0.80;;
8094;SDS011;4090;49.270;8.696;2023-12-22T14:43:47;2.03;;;0.60;;
8094;SDS011;4090;49.270;8.696;2023-12-22T14:46:36;0.85;;;0.60;;
8094;SDS011;4090;49.270;8.696;2023-12-22T14:49:19;0.70;;;0.70;;
8094;SDS011;4090;49.270;8.696;2023-12-22T14:52:01;0.95;;;0.50;;
8094;SDS011;4090;49.270;8.696;2023-12-22T14:54:44;0.55;;;0.55;;
8094;SDS011;4090;49.270;8.696;2023-12-22T14:57:27;0.40;;;0.40;;
8094;SDS011;4090;49.270;8.696;2023-12-22T15:00:10;1.00;;;0.80;;
8094;SDS011;4090;49.270;8.696;2023-12-22T15:02:52;1.38;;;0.70;;
8094;SDS011;4090;49.270;8.696;2023-12-22T15:05:34;0.75;;;0.50;;
8094;SDS011;4090;49.270;8.696;2023-12-22T15:08:16;1.48;;;0.80;;
8094;SDS011;4090;49.270;8.696;2023-12-22T15:10:59;0.70;;;0.63;;
8094;SDS011;4090;49.270;8.696;2023-12-22T15:13:42;0.80;;;0.60;;
8094;SDS011;4090;49.270;8.696;2023-12-22T15:16:23;0.90;;;0.90;;
8094;SDS011;4090;49.270;8.696;2023-12-22T15:19:05;1.08;;;0.70;;
8094;SDS011;4090;49.270;8.696;2023-12-22T15:21:47;0.52;;;0.47;;
8094;SDS011;4090;49.270;8.696;2023-12-22T15:24:29;1.90;;;0.63;;
8094;SDS011;4090;49.270;8.696;2023-12-22T15:27:12;0.70;;;0.60;;
8094;SDS011;4090;49.270;8.696;2023-12-22T15:29:54;0.95;;;0.75;;
8094;SDS011;4090;49.270;8.696;2023-12-22T15:32:36;1.38;;;0.70;;
8094;SDS011;4090;49.270;8.696;2023-12-22T15:35:19;1.33;;;0.70;;
8094;SDS011;4090;49.270;8.696;2023-12-22T15:38:01;3.33;;;0.90;;
8094;SDS011;4090;49.270;8.696;2023-12-22T15:40:43;1.60;;;1.00;;
8094;SDS011;4090;49.270;8.696;2023-12-22T15:43:26;2.83;;;0.75;;
8094;SDS011;4090;49.270;8.696;2023-12-22T15:46:08;1.05;;;0.75;;
8094;SDS011;4090;49.270;8.696;2023-12-22T15:48:50;1.02;;;0.73;;
8094;SDS011;4090;49.270;8.696;2023-12-22T15:51:32;1.50;;;0.70;;
8094;SDS011;4090;49.270;8.696;2023-12-22T15:54:15;1.02;;;0.70;;
8094;SDS011;4090;49.270;8.696;2023-12-22T15:56:57;0.68;;;0.60;;
8094;SDS011;4090;49.270;8.696;2023-12-22T15:59:41;3.90;;;1.00;;
8094;SDS011;4090;49.270;8.696;2023-12-22T16:02:23;0.60;;;0.60;;
8094;SDS011;4090;49.270;8.696;2023-12-22T16:05:05;0.73;;;0.73;;
8094;SDS011;4090;49.270;8.696;2023-12-22T16:07:49;1.90;;;0.88;;
8094;SDS011;4090;49.270;8.696;2023-12-22T16:10:31;0.77;;;0.77;;
8094;SDS011;4090;49.270;8.696;2023-12-22T16:13:13;2.15;;;0.85;;
8094;SDS011;4090;49.270;8.696;2023-12-22T16:15:56;1.15;;;0.73;;
8094;SDS011;4090;49.270;8.696;2023-12-22T16:18:38;1.60;;;0.75;;
8094;SDS011;4090;49.270;8.696;2023-12-22T16:21:20;2.72;;;1.02;;
8094;SDS011;4090;49.270;8.696;2023-12-22T16:24:03;0.50;;;0.50;;
8094;SDS011;4090;49.270;8.696;2023-12-22T16:26:45;1.38;;;0.90;;
8094;SDS011;4090;49.270;8.696;2023-12-22T16:29:27;1.35;;;1.20;;
8094;SDS011;4090;49.270;8.696;2023-12-22T16:32:10;1.27;;;0.73;;
8094;SDS011;4090;49.270;8.696;2023-12-22T16:34:52;1.17;;;0.90;;
8094;SDS011;4090;49.270;8.696;2023-12-22T16:37:34;0.63;;;0.60;;
8094;SDS011;4090;49.270;8.696;2023-12-22T16:40:15;2.13;;;0.90;;
8094;SDS011;4090;49.270;8.696;2023-12-22T16:42:57;1.73;;;0.65;;
8094;SDS011;4090;49.270;8.696;2023-12-22T16:45:39;2.17;;;0.90;;
8094;SDS011;4090;49.270;8.696;2023-12-22T16:48:23;0.88;;;0.57;;
8094;SDS011;4090;49.270;8.696;2023-12-22T16:51:04;1.73;;;0.98;;
8094;SDS011;4090;49.270;8.696;2023-12-22T16:53:46;0.70;;;0.70;;
8094;SDS011;4090;49.270;8.696;2023-12-22T16:56:28;0.75;;;0.75;;